Time;durP1;ratioP1;P1;durP2;ratioP2;P2;SDS_P1;SDS_P2;PMS_P1;PMS_P2;Temp;Humidity;BMP_temperature;BMP_pressure;BME280_temperature;BME280_humidity;BME280_pressure;Samples;Min_cycle;Max_cycle;Signal;HPM_P1;HPM_P2
2024/02/12 00:00:54;;;;;;;1.83;1.50;;;5.10;99.90;;;;;;6063805;23;20034;-80
2024/02/12 00:03:43;;;;;;;4.95;1.40;;;5.10;99.90;;;;;;6046549;23;20027;-79
2024/02/12 00:06:31;;;;;;;2.30;1.15;;;5.10;1.00;;;;;;6066387;23;20095;-80
2024/02/12 00:09:20;;;;;;;3.65;1.40;;;5.20;52.20;;;;;;6031997;23;20038;-78
2024/02/12 00:12:11;;;;;;;2.60;1.83;;;5.20;99.90;;;;;;6071264;23;20525;-78
2024/02/12 00:15:01;;;;;;;1.67;1.20;;;5.20;99.90;;;;;;6065949;23;20030;-79
2024/02/12 00:17:49;;;;;;;4.65;1.45;;;5.20;99.90;;;;;;6058411;23;20033;-80
2024/02/12 00:20:36;;;;;;;3.15;1.60;;;5.10;99.90;;;;;;6056260;23;20022;-81
2024/02/12 00:23:25;;;;;;;2.70;1.65;;;5.10;1.00;;;;;;6057677;23;20031;-78
2024/02/12 00:26:14;;;;;;;1.45;1.35;;;5.10;5.40;;;;;;6055229;23;20343;-77
2024/02/12 00:29:03;;;;;;;1.52;1.30;;;5.00;99.90;;;;;;6057221;23;20043;-81
2024/02/12 00:31:52;;;;;;;1.35;1.25;;;5.00;99.90;;;;;;6056410;23;20030;-78
2024/02/12 00:34:40;;;;;;;3.53;1.55;;;5.00;1.00;;;;;;6058036;23;20031;-80
2024/02/12 00:37:29;;;;;;;2.55;1.40;;;4.90;99.90;;;;;;6057159;23;20099;-80
2024/02/12 00:40:18;;;;;;;3.25;1.70;;;4.90;36.20;;;;;;6036647;23;20034;-80
2024/02/12 00:43:09;;;;;;;3.78;1.45;;;5.00;99.90;;;;;;6056652;23;20031;-78
2024/02/12 00:45:58;;;;;;;4.82;1.60;;;4.90;99.90;;;;;;6021775;23;20051;-76
2024/02/12 00:48:46;;;;;;;4.35;1.30;;;4.90;1.00;;;;;;6068030;23;20106;-78
2024/02/12 00:51:34;;;;;;;2.30;1.88;;;4.90;99.90;;;;;;6052080;23;20034;-79
2024/02/12 00:54:21;;;;;;;4.45;1.73;;;4.90;24.60;;;;;;6061675;23;20031;-76
2024/02/12 00:57:12;;;;;;;2.05;1.35;;;5.00;21.70;;;;;;6037789;23;20027;-79
2024/02/12 01:00:11;;;;;;;1.98;1.27;;;5.00;1.00;;;;;;6033440;23;20027;-79
2024/02/12 01:02:59;;;;;;;2.40;1.38;;;5.10;1.00;;;;;;6028611;23;20027;-78
2024/02/12 01:05:48;;;;;;;3.03;1.55;;;5.10;1.00;;;;;;6007584;23;20463;-78
2024/02/12 01:08:38;;;;;;;2.85;1.52;;;5.00;1.00;;;;;;6008118;23;20120;-80
2024/02/12 01:11:28;;;;;;;3.47;1.77;;;5.00;1.00;;;;;;6010359;23;20130;-80
2024/02/12 01:14:19;;;;;;;6.30;1.73;;;5.00;1.00;;;;;;6013600;23;20095;-80
2024/02/12 01:17:07;;;;;;;2.70;1.45;;;4.90;81.10;;;;;;6040947;23;20076;-80
2024/02/12 01:19:56;;;;;;;4.03;1.60;;;5.00;99.90;;;;;;6039913;23;20023;-81
2024/02/12 01:22:44;;;;;;;5.72;1.75;;;5.00;76.40;;;;;;6033282;23;20082;-78
2024/02/12 01:25:36;;;;;;;2.35;1.35;;;5.00;1.00;;;;;;6029828;23;20114;-81
2024/02/12 01:28:23;;;;;;;2.92;1.50;;;5.00;1.00;;;;;;6030251;23;20478;-81
2024/02/12 01:31:18;;;;;;;1.48;1.25;;;5.10;1.00;;;;;;6032519;23;20027;-78
2024/02/12 01:34:06;;;;;;;1.85;1.10;;;5.10;99.90;;;;;;6032086;23;20026;-79
2024/02/12 01:36:56;;;;;;;4.38;1.60;;;5.10;99.90;;;;;;6013036;23;20051;-78
2024/02/12 01:39:51;;;;;;;2.63;1.50;;;5.10;99.90;;;;;;6019487;23;20027;-78
2024/02/12 01:42:38;;;;;;;3.67;1.30;;;5.20;99.90;;;;;;6058939;23;20031;-80
2024/02/12 01:45:27;;;;;;;1.48;1.25;;;5.20;70.20;;;;;;6057953;23;20015;-78
2024/02/12 01:48:18;;;;;;;3.92;1.83;;;5.20;1.00;;;;;;6040050;23;20024;-81
2024/02/12 01:51:09;;;;;;;5.53;1.40;;;5.10;1.00;;;;;;6041394;23;20075;-80
2024/02/12 01:53:59;;;;;;;2.38;1.48;;;5.00;1.00;;;;;;6040273;23;20019;-77
2024/02/12 01:56:49;;;;;;;1.92;1.45;;;5.00;99.90;;;;;;6034201;23;20034;-78
2024/02/12 01:59:39;;;;;;;4.00;1.45;;;5.00;99.90;;;;;;6058711;23;20342;-79
2024/02/12 02:02:27;;;;;;;3.13;1.15;;;5.00;99.90;;;;;;6037710;23;20146;-79
2024/02/12 02:05:15;;;;;;;1.10;1.00;;;5.00;99.90;;;;;;6064629;23;20118;-80
2024/02/12 02:08:06;;;;;;;3.05;1.50;;;5.10;99.90;;;;;;6060554;23;20034;-80
2024/02/12 02:10:57;;;;;;;3.20;1.52;;;5.10;99.90;;;;;;6057503;23;20119;-79
2024/02/12 02:13:49;;;;;;;1.90;1.65;;;5.10;99.90;;;;;;6058878;23;20679;-79
2024/02/12 02:16:38;;;;;;;1.75;1.27;;;5.00;1.00;;;;;;6055126;23;20030;-79
2024/02/12 02:19:27;;;;;;;3.88;1.50;;;5.00;1.00;;;;;;6055611;23;20027;-80
2024/02/12 02:22:23;;;;;;;2.63;1.58;;;5.00;28.30;;;;;;6057648;23;20030;-78
2024/02/12 02:25:11;;;;;;;3.17;1.52;;;5.00;99.90;;;;;;6036545;23;20101;-79
2024/02/12 02:28:00;;;;;;;3.17;1.48;;;5.10;99.90;;;;;;6058794;23;20027;-80
2024/02/12 02:30:48;;;;;;;2.08;1.30;;;5.10;99.90;;;;;;6060345;23;20078;-77
2024/02/12 02:33:36;;;;;;;2.67;1.50;;;5.10;99.90;;;;;;6038320;23;20037;-80
2024/02/12 02:36:27;;;;;;;2.28;1.30;;;5.10;1.00;;;;;;6043427;23;20033;-80
2024/02/12 02:39:15;;;;;;;1.90;1.42;;;5.10;1.00;;;;;;6068347;23;20022;-80
2024/02/12 02:42:03;;;;;;;2.35;1.70;;;5.10;2.40;;;;;;6063244;23;20042;-79
2024/02/12 02:44:52;;;;;;;2.42;1.30;;;5.20;99.90;;;;;;6037051;23;20133;-79
2024/02/12 02:47:43;;;;;;;2.28;1.40;;;5.10;99.90;;;;;;6037516;23;20027;-79
2024/02/12 02:50:34;;;;;;;2.33;1.48;;;5.10;99.90;;;;;;6058173;23;20136;-79
2024/02/12 02:53:22;;;;;;;2.13;1.30;;;5.00;99.90;;;;;;6058081;23;20027;-80
2024/02/12 02:56:09;;;;;;;4.57;1.58;;;4.90;1.00;;;;;;6056765;23;20027;-75
2024/02/12 02:58:58;;;;;;;3.55;1.83;;;4.80;92.80;;;;;;6057589;23;20370;-78
2024/02/12 03:01:45;;;;;;;4.28;1.52;;;4.70;99.90;;;;;;6058585;23;20027;-80
2024/02/12 03:04:34;;;;;;;3.45;1.60;;;4.70;99.90;;;;;;6056286;23;20562;-81
2024/02/12 03:07:22;;;;;;;1.80;1.40;;;4.70;99.90;;;;;;6056441;23;20027;-80
2024/02/12 03:10:12;;;;;;;2.95;1.83;;;4.70;99.90;;;;;;6057608;23;20058;-79
2024/02/12 03:13:01;;;;;;;3.75;1.70;;;4.70;99.90;;;;;;6054411;23;20683;-80
2024/02/12 03:15:48;;;;;;;2.33;1.35;;;4.70;99.90;;;;;;6061070;23;20030;-78
2024/02/12 03:18:36;;;;;;;2.67;1.40;;;4.80;99.90;;;;;;6067044;23;20112;-78
2024/02/12 03:21:24;;;;;;;2.75;1.65;;;4.90;99.90;;;;;;6045166;23;20088;-80
2024/02/12 03:24:13;;;;;;;2.58;1.35;;;5.00;99.90;;;;;;6036958;23;20033;-80
2024/02/12 03:27:00;;;;;;;3.55;1.33;;;5.00;99.90;;;;;;6036056;23;20043;-80
2024/02/12 03:29:49;;;;;;;2.05;1.38;;;5.00;99.90;;;;;;6066616;23;20629;-79
2024/02/12 03:32:38;;;;;;;1.55;1.20;;;5.00;99.90;;;;;;6057947;23;20754;-79
2024/02/12 03:35:26;;;;;;;1.65;1.30;;;5.00;99.90;;;;;;6054900;23;20443;-81
2024/02/12 03:38:14;;;;;;;1.30;1.20;;;5.00;99.90;;;;;;6057224;23;20026;-80
2024/02/12 03:41:05;;;;;;;2.15;1.58;;;5.00;99.90;;;;;;6059847;23;20125;-80
2024/02/12 03:43:53;;;;;;;2.30;1.70;;;5.10;99.90;;;;;;6058413;23;20030;-80
2024/02/12 03:46:45;;;;;;;3.83;1.50;;;5.10;99.90;;;;;;6057246;23;20141;-80
2024/02/12 04:02:01;;;;;;;2.47;1.63;;;5.10;99.90;;;;;;6056446;23;20529;-80
2024/02/12 04:04:50;;;;;;;1.73;1.50;;;5.10;99.90;;;;;;6058390;23;20114;-79
2024/02/12 04:07:38;;;;;;;4.47;1.67;;;5.10;99.90;;;;;;6059238;23;20027;-79
2024/02/12 04:10:27;;;;;;;2.38;1.73;;;5.10;99.90;;;;;;6057492;23;20034;-78
2024/02/12 04:13:16;;;;;;;6.20;2.10;;;5.10;99.90;;;;;;6060755;23;20027;-81
2024/02/12 04:16:09;;;;;;;3.53;2.00;;;5.10;99.90;;;;;;6056750;23;20704;-80
2024/02/12 04:18:56;;;;;;;5.72;1.88;;;5.10;99.90;;;;;;6056793;23;20034;-80
2024/02/12 04:21:45;;;;;;;2.08;1.85;;;5.10;99.90;;;;;;6044409;23;20033;-78
2024/02/12 04:24:36;;;;;;;3.15;1.77;;;5.10;99.90;;;;;;6066145;23;20050;-79
2024/02/12 04:27:25;;;;;;;6.63;1.73;;;5.10;99.90;;;;;;6060215;23;20047;-81
2024/02/12 04:30:14;;;;;;;3.85;1.80;;;5.10;99.90;;;;;;6049031;23;20049;-77
2024/02/12 04:33:03;;;;;;;1.90;1.63;;;5.10;99.90;;;;;;6045860;23;20042;-79
2024/02/12 04:35:51;;;;;;;4.22;1.73;;;5.10;99.90;;;;;;6042725;23;20541;-79
2024/02/12 04:38:41;;;;;;;2.97;1.70;;;5.10;99.90;;;;;;6056105;23;20027;-79
2024/02/12 04:41:32;;;;;;;1.73;1.50;;;5.10;99.90;;;;;;6056459;23;20031;-81
2024/02/12 04:44:20;;;;;;;6.03;1.70;;;5.10;99.90;;;;;;6057578;23;20035;-81
2024/02/12 04:47:09;;;;;;;2.05;1.83;;;5.10;99.90;;;;;;6053848;23;20098;-76
2024/02/12 04:49:57;;;;;;;1.70;1.60;;;5.00;99.90;;;;;;6038863;23;20031;-80
2024/02/12 04:52:44;;;;;;;2.40;1.83;;;4.90;99.90;;;;;;6057566;23;20026;-79
2024/02/12 04:55:32;;;;;;;2.88;1.90;;;4.90;99.90;;;;;;6058270;23;20042;-79
2024/02/12 04:58:22;;;;;;;5.25;1.98;;;4.90;99.90;;;;;;6064842;23;20046;-79
2024/02/12 05:01:12;;;;;;;2.47;1.98;;;4.90;99.90;;;;;;6055970;23;20014;-78
2024/02/12 05:04:01;;;;;;;1.83;1.70;;;4.80;99.90;;;;;;6057514;23;20074;-77
2024/02/12 05:06:49;;;;;;;3.50;2.03;;;4.80;99.90;;;;;;6087193;23;20114;-78
2024/02/12 05:09:40;;;;;;;3.65;1.80;;;4.70;99.90;;;;;;6085342;23;20042;-79
2024/02/12 05:12:29;;;;;;;3.40;2.35;;;4.60;99.90;;;;;;6049574;23;20105;-80
2024/02/12 05:15:18;;;;;;;3.45;2.13;;;4.60;99.90;;;;;;6085772;23;20022;-76
2024/02/12 05:22:33;;;;;;;2.80;2.10;;;4.50;99.90;;;;;;6071767;23;20078;-78
2024/02/12 05:24:32;;;;;;;3.50;2.10;;;4.50;99.90;;;;;;6067474;23;20035;-80
2024/02/12 05:27:20;;;;;;;4.68;1.88;;;4.50;99.90;;;;;;6035084;23;20105;-76
2024/02/12 05:30:07;;;;;;;3.22;1.85;;;4.40;99.90;;;;;;6066612;23;20433;-79
2024/02/12 05:32:55;;;;;;;2.30;2.10;;;4.30;99.90;;;;;;6061866;23;20105;-80
2024/02/12 05:35:44;;;;;;;3.83;2.00;;;4.30;99.90;;;;;;6036171;23;20023;-80
2024/02/12 05:38:33;;;;;;;3.30;2.38;;;4.30;99.90;;;;;;6055858;23;20023;-80
2024/02/12 05:41:21;;;;;;;5.47;2.45;;;4.30;99.90;;;;;;6054018;23;20023;-80
2024/02/12 05:44:08;;;;;;;4.20;2.78;;;4.20;99.90;;;;;;6054241;23;20026;-78
2024/02/12 05:46:56;;;;;;;4.05;2.70;;;4.30;99.90;;;;;;6055786;23;20134;-80
2024/02/12 05:49:44;;;;;;;7.00;3.78;;;4.20;99.90;;;;;;6056261;23;20194;-80
2024/02/12 05:52:34;;;;;;;10.07;4.30;;;4.20;99.90;;;;;;6055171;23;20521;-81
2024/02/12 05:55:22;;;;;;;7.65;4.22;;;4.20;99.90;;;;;;6037207;23;20031;-80
2024/02/12 05:58:10;;;;;;;6.75;3.83;;;4.20;99.90;;;;;;6056561;23;20756;-78
2024/02/12 06:00:58;;;;;;;5.95;3.90;;;4.20;99.90;;;;;;6067927;23;20133;-81
2024/02/12 06:03:47;;;;;;;8.10;3.63;;;4.20;99.90;;;;;;6057294;23;20046;-79
2024/02/12 06:06:39;;;;;;;6.68;4.07;;;4.20;99.90;;;;;;6061185;23;20037;-78
2024/02/12 06:09:28;;;;;;;;;;;4.30;99.90;;;;;;6069447;23;20046;-81
2024/02/12 06:12:16;;;;;;;7.35;3.53;;;4.40;99.90;;;;;;6066996;23;19924;-80
2024/02/12 06:15:05;;;;;;;9.27;4.20;;;4.50;99.90;;;;;;6036114;23;20031;-82
2024/02/12 06:17:53;;;;;;;8.68;4.07;;;4.50;99.90;;;;;;6056789;23;20030;-82
2024/02/12 06:20:41;;;;;;;4.88;3.40;;;4.60;99.90;;;;;;6054913;23;20031;-80
2024/02/12 06:23:29;;;;;;;4.18;3.00;;;4.60;99.90;;;;;;6058758;23;20979;-82
2024/02/12 06:26:19;;;;;;;6.88;3.60;;;4.60;99.90;;;;;;6061831;23;20027;-81
2024/02/12 06:29:11;;;;;;;5.72;3.53;;;4.60;99.90;;;;;;6058155;23;20031;-80
2024/02/12 06:32:03;;;;;;;5.13;3.92;;;4.50;99.90;;;;;;6056995;23;20117;-82
2024/02/12 06:34:51;;;;;;;5.32;2.75;;;4.50;99.90;;;;;;6060027;23;20375;-82
2024/02/12 06:37:39;;;;;;;5.22;3.90;;;4.50;99.90;;;;;;6033435;23;20034;-80
2024/02/12 06:40:26;;;;;;;6.13;4.20;;;4.50;99.90;;;;;;6016492;23;20023;-80
2024/02/12 06:43:14;;;;;;;7.10;4.05;;;4.50;99.90;;;;;;6058212;23;20042;-79
2024/02/12 06:46:01;;;;;;;6.45;4.22;;;4.50;99.90;;;;;;6054914;23;20042;-79
2024/02/12 06:48:49;;;;;;;7.90;3.65;;;4.40;99.90;;;;;;6039770;23;20142;-78
2024/02/12 06:51:41;;;;;;;4.30;3.67;;;4.40;99.90;;;;;;6061400;23;20207;-75
2024/02/12 06:54:29;;;;;;;5.68;3.55;;;4.40;99.90;;;;;;6065729;23;20027;-77
2024/02/12 06:57:16;;;;;;;8.43;5.25;;;4.40;99.90;;;;;;6068070;23;20026;-78
2024/02/12 07:00:05;;;;;;;7.15;5.55;;;4.50;99.90;;;;;;6071639;23;20133;-80
2024/02/12 07:02:52;;;;;;;8.18;5.18;;;4.40;99.90;;;;;;6060053;23;20034;-78
2024/02/12 07:05:41;;;;;;;8.15;5.20;;;4.40;99.90;;;;;;6063356;23;20026;-77
2024/02/12 07:08:28;;;;;;;6.43;3.72;;;4.40;99.90;;;;;;6039193;23;20548;-77
2024/02/12 07:11:16;;;;;;;6.20;4.00;;;4.40;99.90;;;;;;6061369;23;20085;-79
2024/02/12 07:14:05;;;;;;;6.50;4.38;;;4.50;99.90;;;;;;6060073;23;20096;-76
2024/02/12 07:16:56;;;;;;;5.90;4.43;;;4.50;99.90;;;;;;6063728;23;20086;-76
2024/02/12 07:19:51;;;;;;;8.20;4.07;;;4.50;99.90;;;;;;6060472;23;20027;-77
2024/02/12 07:22:39;;;;;;;5.25;4.00;;;4.60;99.90;;;;;;6063235;23;20115;-76
2024/02/12 07:25:27;;;;;;;4.78;3.70;;;4.70;99.90;;;;;;6059070;23;20027;-77
2024/02/12 07:28:15;;;;;;;7.63;3.33;;;4.70;99.90;;;;;;6042622;23;20046;-78
2024/02/12 07:31:06;;;;;;;6.65;3.70;;;4.80;99.90;;;;;;6042866;23;20094;-76
2024/02/12 07:33:53;;;;;;;4.47;2.80;;;4.80;99.90;;;;;;6067291;23;20031;-77
2024/02/12 07:36:44;;;;;;;3.53;3.05;;;4.80;99.90;;;;;;6065198;23;20070;-79
2024/02/12 07:39:32;;;;;;;4.07;2.90;;;4.80;99.90;;;;;;6031094;23;20022;-77
2024/02/12 07:42:21;;;;;;;5.25;3.30;;;4.80;99.90;;;;;;6039504;23;20038;-78
2024/02/12 07:45:10;;;;;;;5.25;3.80;;;4.80;99.90;;;;;;6070127;23;20029;-78
2024/02/12 07:47:58;;;;;;;5.82;4.20;;;4.90;99.90;;;;;;6059975;23;20041;-78
2024/02/12 07:50:46;;;;;;;6.88;4.18;;;5.00;99.90;;;;;;6061237;23;20038;-81
2024/02/12 07:53:35;;;;;;;7.82;3.65;;;5.10;99.90;;;;;;6061261;23;20086;-78
2024/02/12 07:56:23;;;;;;;3.95;3.45;;;5.10;99.90;;;;;;6052469;23;20050;-77
2024/02/12 07:59:12;;;;;;;6.45;3.20;;;5.10;99.90;;;;;;6031595;23;20142;-79
2024/02/12 08:02:02;;;;;;;5.80;3.03;;;5.10;99.90;;;;;;6051513;23;20162;-78
2024/02/12 08:04:50;;;;;;;4.05;2.80;;;5.10;99.90;;;;;;6033774;23;20126;-79
2024/02/12 08:07:39;;;;;;;3.88;3.05;;;5.20;99.90;;;;;;6051030;23;20031;-78
2024/02/12 08:10:48;;;;;;;3.13;2.72;;;5.30;99.90;;;;;;6052799;23;20097;-82
2024/02/12 08:13:36;;;;;;;4.85;3.30;;;5.20;99.90;;;;;;6054546;23;20035;-79
2024/02/12 08:16:26;;;;;;;3.95;2.80;;;5.30;99.90;;;;;;6055548;23;20050;-77
2024/02/12 08:19:14;;;;;;;6.03;2.92;;;5.30;99.90;;;;;;6054098;23;20035;-78
2024/02/12 08:22:01;;;;;;;5.80;3.10;;;5.30;99.90;;;;;;6051715;23;20783;-78
2024/02/12 08:24:49;;;;;;;5.90;4.03;;;5.30;99.90;;;;;;6054416;23;20317;-78
2024/02/12 08:27:38;;;;;;;8.55;4.13;;;5.20;99.90;;;;;;6064545;23;20037;-78
2024/02/12 08:30:26;;;;;;;13.02;4.63;;;5.20;99.90;;;;;;6066675;23;20027;-77
2024/02/12 08:33:18;;;;;;;5.57;3.40;;;5.30;99.90;;;;;;6063683;23;20035;-78
2024/02/12 08:36:07;;;;;;;5.78;2.70;;;5.50;99.90;;;;;;6060396;23;20698;-80
2024/02/12 08:38:56;;;;;;;8.07;3.78;;;5.70;99.90;;;;;;6055536;23;20046;-78
2024/02/12 08:41:44;;;;;;;3.67;2.28;;;5.90;99.90;;;;;;6059648;23;20532;-78
2024/02/12 08:44:33;;;;;;;4.53;2.20;;;6.30;99.90;;;;;;6052749;23;20068;-78
2024/02/12 08:47:20;;;;;;;4.85;2.33;;;6.40;99.90;;;;;;6054607;23;20031;-79
2024/02/12 08:50:10;;;;;;;3.97;2.92;;;6.70;99.90;;;;;;6062915;23;20023;-76
2024/02/12 08:52:59;;;;;;;4.30;2.15;;;7.20;1.00;;;;;;6080780;23;20017;-77
2024/02/12 08:55:51;;;;;;;3.88;2.40;;;7.60;99.90;;;;;;6065228;23;20031;-78
2024/02/12 08:58:40;;;;;;;3.10;2.03;;;8.00;99.90;;;;;;6055629;23;20030;-77
2024/02/12 09:01:30;;;;;;;5.20;2.50;;;7.60;99.90;;;;;;6033373;23;20023;-79
2024/02/12 09:04:19;;;;;;;4.53;2.92;;;7.20;16.10;;;;;;6053574;23;20046;-79
2024/02/12 09:07:11;;;;;;;4.07;2.58;;;7.10;99.90;;;;;;6056666;23;20026;-80
2024/02/12 09:10:00;;;;;;;5.57;2.33;;;7.20;99.90;;;;;;6038130;23;20497;-78
2024/02/12 09:12:51;;;;;;;4.00;2.65;;;7.60;1.00;;;;;;6039959;23;20035;-77
2024/02/12 09:15:41;;;;;;;4.80;2.42;;;8.00;99.90;;;;;;6069086;23;20038;-78
2024/02/12 09:18:29;;;;;;;3.72;2.70;;;8.30;1.00;;;;;;6061535;23;20101;-79
2024/02/12 09:21:17;;;;;;;4.30;2.80;;;8.80;99.90;;;;;;6049813;23;20062;-78
2024/02/12 09:24:07;;;;;;;5.07;2.60;;;8.80;1.00;;;;;;6066472;23;20031;-78
2024/02/12 09:26:56;;;;;;;3.22;2.40;;;8.80;99.90;;;;;;6068802;23;20023;-78
2024/02/12 09:29:47;;;;;;;3.97;2.40;;;8.80;56.50;;;;;;6021232;23;20086;-81
2024/02/12 09:32:36;;;;;;;3.00;2.10;;;8.80;1.00;;;;;;6037614;23;20039;-80
2024/02/12 09:35:23;;;;;;;2.58;2.08;;;8.90;99.90;;;;;;6038634;23;20125;-77
2024/02/12 09:38:11;;;;;;;4.72;2.63;;;9.00;99.90;;;;;;6058814;23;20027;-77
2024/02/12 09:41:02;;;;;;;4.32;2.60;;;9.00;99.90;;;;;;6067034;23;20037;-79
2024/02/12 09:43:50;;;;;;;5.20;2.75;;;8.60;99.90;;;;;;6074536;23;20015;-76
2024/02/12 09:46:43;;;;;;;3.83;2.65;;;8.20;99.90;;;;;;6075971;23;20058;-78
2024/02/12 09:49:32;;;;;;;3.97;2.60;;;8.00;99.90;;;;;;6057311;23;20029;-79
2024/02/12 09:52:21;;;;;;;4.65;2.47;;;8.00;99.90;;;;;;6040192;23;20030;-79
2024/02/12 09:55:09;;;;;;;2.75;2.28;;;8.10;99.90;;;;;;6048807;23;20113;-78
2024/02/12 09:58:00;;;;;;;3.55;2.33;;;8.40;99.90;;;;;;6061398;23;20027;-77
2024/02/12 10:00:50;;;;;;;4.97;2.50;;;8.90;99.90;;;;;;6059569;23;20022;-79
2024/02/12 10:03:39;;;;;;;2.78;2.45;;;9.20;61.80;;;;;;6059345;23;20027;-78
2024/02/12 10:06:28;;;;;;;4.13;2.42;;;9.30;1.00;;;;;;6054680;23;20026;-78
2024/02/12 10:09:19;;;;;;;2.90;1.77;;;9.30;1.00;;;;;;6074859;23;20368;-79
2024/02/12 10:12:09;;;;;;;;;;;9.50;1.00;;;;;;6068214;23;20019;-80
2024/02/12 10:14:57;;;;;;;3.30;2.60;;;9.90;1.00;;;;;;6061629;23;19924;-79
2024/02/12 10:17:49;;;;;;;3.30;2.22;;;9.30;1.00;;;;;;6060268;23;20038;-78
2024/02/12 10:20:39;;;;;;;6.40;2.63;;;8.80;1.00;;;;;;6061001;23;20283;-77
2024/02/12 10:23:30;;;;;;;4.32;2.70;;;8.50;1.00;;;;;;6063074;23;20113;-80
2024/02/12 10:26:24;;;;;;;5.55;2.30;;;8.20;1.00;;;;;;6055408;23;20042;-79
2024/02/12 10:29:13;;;;;;;2.88;2.10;;;8.20;1.00;;;;;;6056162;23;20031;-78
2024/02/12 10:32:04;;;;;;;3.10;2.15;;;8.00;1.00;;;;;;6055387;23;20031;-79
2024/02/12 10:34:58;;;;;;;7.47;2.60;;;7.80;1.00;;;;;;6061656;23;20027;-80
2024/02/12 10:37:51;;;;;;;3.97;2.42;;;7.90;1.00;;;;;;6063208;23;20037;-80
2024/02/12 10:41:03;;;;;;;2.88;2.42;;;8.10;1.00;;;;;;6042283;23;20030;-84
2024/02/12 10:43:54;;;;;;;2.30;1.70;;;8.30;1.00;;;;;;6057497;23;20035;-77
2024/02/12 10:46:41;;;;;;;2.80;1.83;;;8.40;1.00;;;;;;6057259;23;20101;-78
2024/02/12 10:49:29;;;;;;;3.92;1.58;;;8.50;99.90;;;;;;6056302;23;20250;-76
2024/02/12 10:52:17;;;;;;;3.05;1.40;;;8.70;99.90;;;;;;6053106;23;20048;-77
2024/02/12 10:55:09;;;;;;;3.30;2.03;;;8.80;99.90;;;;;;6060761;23;20034;-77
2024/02/12 10:58:00;;;;;;;2.97;1.40;;;8.80;99.90;;;;;;6068052;23;20041;-78
2024/02/12 11:00:57;;;;;;;1.27;1.17;;;8.70;99.90;;;;;;6068192;23;20023;-76
2024/02/12 11:03:59;;;;;;;1.50;1.27;;;8.50;99.90;;;;;;6071213;23;20885;-78
2024/02/12 11:06:48;;;;;;;2.15;1.10;;;8.60;99.90;;;;;;6067707;23;20043;-78
2024/02/12 11:09:36;;;;;;;0.95;0.80;;;8.70;99.90;;;;;;6077791;23;20031;-78
2024/02/12 11:12:27;;;;;;;1.33;0.90;;;8.80;1.00;;;;;;6084306;23;20030;-77
2024/02/12 11:15:24;;;;;;;2.72;0.90;;;8.80;99.90;;;;;;6063447;23;20086;-78
2024/02/12 11:18:13;;;;;;;1.65;1.10;;;8.80;99.90;;;;;;6077848;23;20023;-78
2024/02/12 11:21:02;;;;;;;1.73;0.88;;;8.80;99.90;;;;;;6036052;23;20042;-77
2024/02/12 11:23:51;;;;;;;1.65;0.90;;;9.20;99.90;;;;;;6044963;23;20067;-76
2024/02/12 11:26:43;;;;;;;0.80;0.80;;;10.20;99.90;;;;;;6052144;23;20133;-77
2024/02/12 11:29:31;;;;;;;1.35;1.08;;;11.00;99.90;;;;;;6054931;23;20031;-78
2024/02/12 11:32:22;;;;;;;1.05;0.80;;;11.10;99.90;;;;;;6057149;23;20030;-77
2024/02/12 11:35:14;;;;;;;1.20;0.70;;;11.40;99.90;;;;;;6059875;23;20054;-77
2024/02/12 11:38:01;;;;;;;0.60;0.60;;;12.40;99.90;;;;;;6061851;23;20042;-78
2024/02/12 11:41:00;;;;;;;0.52;0.50;;;14.00;99.90;;;;;;6039429;23;20070;-77
2024/02/12 11:43:48;;;;;;;0.45;0.40;;;15.70;99.90;;;;;;6055307;23;20639;-78
2024/02/12 11:46:39;;;;;;;0.52;0.50;;;17.30;99.90;;;;;;6053094;23;20031;-80
2024/02/12 11:49:29;;;;;;;0.52;0.50;;;16.80;99.90;;;;;;6035542;23;20030;-78
2024/02/12 11:52:18;;;;;;;2.22;0.90;;;15.90;99.90;;;;;;6055782;23;20034;-77
2024/02/12 11:55:08;;;;;;;1.80;0.90;;;13.90;99.90;;;;;;6039578;23;20125;-78
2024/02/12 11:57:58;;;;;;;1.40;0.70;;;12.60;99.90;;;;;;6056639;23;20091;-76
2024/02/12 12:00:47;;;;;;;1.02;0.68;;;12.20;99.90;;;;;;6059266;23;20611;-78
2024/02/12 12:03:37;;;;;;;1.50;0.90;;;11.90;99.90;;;;;;6040510;23;20041;-76
2024/02/12 12:06:31;;;;;;;1.48;1.00;;;11.80;99.90;;;;;;6075228;23;20029;-77
2024/02/12 12:09:19;;;;;;;1.98;0.80;;;11.50;99.90;;;;;;6088257;23;20070;-79
2024/02/12 12:12:10;;;;;;;2.55;0.98;;;11.00;99.90;;;;;;6068003;23;20509;-79
2024/02/12 12:15:05;;;;;;;2.25;1.00;;;10.60;99.90;;;;;;6054398;23;20031;-77
2024/02/12 12:17:53;;;;;;;1.27;0.90;;;10.40;99.90;;;;;;6052893;23;20106;-78
2024/02/12 12:20:41;;;;;;;2.45;0.90;;;10.10;99.90;;;;;;6054372;23;20023;-78
2024/02/12 12:23:29;;;;;;;1.30;1.00;;;10.00;99.90;;;;;;6065930;23;20023;-77
2024/02/12 12:26:19;;;;;;;2.55;1.05;;;9.90;99.90;;;;;;6072764;23;20035;-77
2024/02/12 12:29:06;;;;;;;2.85;1.27;;;9.80;99.90;;;;;;6067001;23;20101;-77
2024/02/12 12:31:54;;;;;;;1.60;0.98;;;9.60;99.90;;;;;;6058456;23;20037;-77
2024/02/12 12:34:41;;;;;;;1.40;1.30;;;9.30;99.90;;;;;;6060028;23;20026;-79
2024/02/12 12:37:31;;;;;;;1.27;1.10;;;9.30;99.90;;;;;;6062454;23;20031;-80
2024/02/12 12:40:19;;;;;;;2.88;1.50;;;9.20;99.90;;;;;;6043085;23;20121;-80
2024/02/12 12:43:08;;;;;;;2.50;1.10;;;9.10;99.90;;;;;;6052222;23;20026;-77
2024/02/12 12:46:00;;;;;;;4.97;1.20;;;9.10;99.90;;;;;;6052123;23;20029;-80
2024/02/12 12:48:49;;;;;;;1.17;0.95;;;9.10;99.90;;;;;;6057392;23;20105;-77
2024/02/12 12:51:37;;;;;;;3.58;2.38;;;9.20;99.90;;;;;;6064516;23;20208;-77
2024/02/12 12:54:24;;;;;;;3.65;1.85;;;9.30;99.90;;;;;;6063713;23;20196;-81
2024/02/12 12:57:13;;;;;;;2.88;1.08;;;9.30;99.90;;;;;;6056962;23;20027;-78
2024/02/12 13:00:04;;;;;;;1.08;0.98;;;9.30;99.90;;;;;;6034157;23;20031;-77
2024/02/12 13:02:58;;;;;;;1.30;1.10;;;9.40;99.90;;;;;;6043198;23;20113;-78
2024/02/12 13:05:46;;;;;;;1.67;1.05;;;9.30;99.90;;;;;;6057411;23;20046;-78
2024/02/12 13:08:35;;;;;;;1.27;1.00;;;9.50;99.90;;;;;;6052711;23;20081;-77
2024/02/12 13:11:22;;;;;;;2.45;1.00;;;9.60;99.90;;;;;;6054134;23;20038;-77
2024/02/12 13:14:12;;;;;;;2.22;1.00;;;9.70;99.90;;;;;;6053952;23;20451;-76
2024/02/12 13:17:00;;;;;;;2.83;0.95;;;9.70;99.90;;;;;;6052240;23;20038;-77
2024/02/12 13:19:48;;;;;;;1.33;1.10;;;9.70;99.90;;;;;;6012356;23;20046;-76
2024/02/12 13:22:59;;;;;;;3.08;1.30;;;9.40;99.90;;;;;;6054305;23;20455;-77
2024/02/12 13:25:51;;;;;;;1.45;1.20;;;9.30;99.90;;;;;;6053093;23;20031;-77
2024/02/12 13:28:39;;;;;;;2.90;1.20;;;9.30;99.90;;;;;;6034144;23;20441;-76
2024/02/12 13:31:28;;;;;;;1.60;1.00;;;9.40;99.90;;;;;;6055704;23;20113;-77
2024/02/12 13:34:16;;;;;;;1.52;1.23;;;9.40;99.90;;;;;;6055291;23;20034;-77
2024/02/12 13:37:07;;;;;;;1.88;1.17;;;9.50;99.90;;;;;;6053541;23;20030;-76
2024/02/12 13:39:58;;;;;;;4.32;1.20;;;9.50;99.90;;;;;;6041085;23;20028;-77
2024/02/12 13:42:47;;;;;;;1.90;1.15;;;9.60;99.90;;;;;;6066098;23;20034;-78
2024/02/12 13:45:38;;;;;;;2.25;1.48;;;9.50;99.90;;;;;;6046252;23;20072;-78
2024/02/12 13:48:26;;;;;;;2.63;1.27;;;9.30;99.90;;;;;;6056056;23;20034;-77
2024/02/12 13:51:14;;;;;;;4.57;1.20;;;9.10;99.90;;;;;;6064869;23;20057;-78
2024/02/12 13:54:04;;;;;;;2.78;1.33;;;9.00;99.90;;;;;;6043423;23;20380;-80
2024/02/12 13:56:54;;;;;;;2.83;1.23;;;9.10;99.90;;;;;;6059073;23;20106;-79
2024/02/12 13:59:43;;;;;;;3.92;1.52;;;9.30;99.90;;;;;;6059183;23;20093;-80
2024/02/12 14:02:32;;;;;;;2.60;1.15;;;9.40;99.90;;;;;;6061265;23;20572;-80
2024/02/12 14:05:24;;;;;;;5.38;2.58;;;9.40;99.90;;;;;;6059190;23;20019;-80
2024/02/12 14:08:13;;;;;;;3.28;1.50;;;9.30;99.90;;;;;;6055818;23;20026;-81
2024/02/12 14:11:01;;;;;;;2.42;1.40;;;9.10;99.90;;;;;;6056529;23;20106;-80
2024/02/12 14:13:51;;;;;;;3.28;1.30;;;9.00;99.90;;;;;;6059144;23;20403;-76
2024/02/12 14:16:40;;;;;;;3.22;1.08;;;8.80;99.90;;;;;;6039241;23;20616;-80
2024/02/12 14:19:32;;;;;;;3.08;1.65;;;8.70;99.90;;;;;;6058678;23;20101;-80
2024/02/12 14:22:20;;;;;;;1.50;1.00;;;8.60;99.90;;;;;;6037767;23;20019;-81
2024/02/12 14:25:13;;;;;;;4.57;1.63;;;8.60;99.90;;;;;;6037983;23;20050;-79
2024/02/12 14:28:02;;;;;;;4.53;1.67;;;8.60;99.90;;;;;;6061089;23;20027;-81
2024/02/12 14:30:53;;;;;;;3.20;1.48;;;8.50;99.90;;;;;;6068029;23;20050;-79
2024/02/12 14:33:42;;;;;;;4.70;1.60;;;8.30;99.90;;;;;;6051258;23;20027;-79
2024/02/12 14:36:32;;;;;;;10.23;1.77;;;8.30;99.90;;;;;;6066895;23;20942;-79
2024/02/12 14:39:20;;;;;;;6.72;1.77;;;8.40;99.90;;;;;;6054683;23;20027;-80
2024/02/12 14:42:09;;;;;;;4.97;2.05;;;8.50;99.90;;;;;;6070673;23;20074;-80
2024/02/12 14:45:08;;;;;;;3.17;1.63;;;8.50;99.90;;;;;;6065502;23;20030;-80
2024/02/12 14:48:04;;;;;;;3.53;1.48;;;8.50;99.90;;;;;;6062678;23;20044;-82
2024/02/12 14:50:56;;;;;;;2.33;1.13;;;8.50;99.90;;;;;;6061272;23;20145;-83
2024/02/12 14:53:43;;;;;;;3.00;1.55;;;8.40;99.90;;;;;;6057949;23;20049;-83
2024/02/12 14:56:31;;;;;;;2.10;1.10;;;8.30;99.90;;;;;;6060759;23;20049;-79
2024/02/12 14:59:22;;;;;;;2.42;1.30;;;8.20;99.90;;;;;;6061746;23;20422;-80
2024/02/12 15:02:15;;;;;;;1.65;1.00;;;8.20;99.90;;;;;;6061900;23;20023;-78
2024/02/12 15:05:05;;;;;;;4.38;1.10;;;8.10;99.90;;;;;;6052050;23;20022;-75
2024/02/12 15:07:57;;;;;;;3.88;1.17;;;8.10;99.90;;;;;;6070065;23;20055;-78
2024/02/12 15:10:48;;;;;;;1.42;1.10;;;8.10;99.90;;;;;;6056873;23;20370;-76